createdAt,value
2018-10-09T00:02:05.276Z,82.00
2018-10-09T00:04:33.919Z,82.10
2018-10-09T00:07:02.553Z,82.30
2018-10-09T00:09:31.212Z,82.50
2018-10-09T00:11:59.866Z,82.30
2018-10-09T00:14:28.505Z,82.40
2018-10-09T00:16:57.151Z,82.80
2018-10-09T00:19:25.839Z,82.70
2018-10-09T00:21:54.488Z,82.70
2018-10-09T00:24:23.148Z,82.90
2018-10-09T00:26:51.807Z,83.00
2018-10-09T00:29:20.472Z,82.90
2018-10-09T00:31:49.117Z,82.80
2018-10-09T00:34:17.755Z,83.00
2018-10-09T00:36:46.396Z,82.90
2018-10-09T00:39:15.064Z,83.10
2018-10-09T00:41:43.726Z,83.70
2018-10-09T00:44:12.396Z,83.70
2018-10-09T00:46:41.037Z,83.80
2018-10-09T00:49:09.736Z,83.60
2018-10-09T00:51:38.370Z,83.40
2018-10-09T00:54:07.026Z,83.40
2018-10-09T00:56:35.675Z,83.10
2018-10-09T00:59:04.338Z,83.40
2018-10-09T01:01:33.010Z,83.30
2018-10-09T01:04:01.691Z,83.20
2018-10-09T01:06:30.327Z,83.40
2018-10-09T01:08:59.068Z,83.20
2018-10-09T01:11:27.671Z,83.40
2018-10-09T01:13:56.329Z,83.30
2018-10-09T01:16:24.973Z,83.40
2018-10-09T01:18:53.621Z,83.70
2018-10-09T01:21:22.287Z,83.80
2018-10-09T01:23:50.949Z,84.50
2018-10-09T01:26:19.607Z,83.40
2018-10-09T01:28:48.243Z,83.80
2018-10-09T01:31:16.891Z,83.90
2018-10-09T01:33:45.539Z,83.80
2018-10-09T01:36:14.225Z,83.80
2018-10-09T01:38:42.887Z,83.70
2018-10-09T01:41:11.552Z,83.70
2018-10-09T01:43:40.210Z,83.40
2018-10-09T01:46:08.870Z,83.40
2018-10-09T01:48:37.536Z,83.80
2018-10-09T01:51:06.226Z,83.70
2018-10-09T01:53:34.864Z,83.70
2018-10-09T01:56:03.540Z,83.60
2018-10-09T01:58:32.176Z,83.80
2018-10-09T02:01:00.831Z,83.80
2018-10-09T02:03:29.463Z,83.60
2018-10-09T02:05:58.135Z,83.40
2018-10-09T02:08:26.796Z,83.00
2018-10-09T02:10:55.518Z,83.10
2018-10-09T02:13:24.180Z,83.10
2018-10-09T02:15:52.900Z,82.90
2018-10-09T02:18:21.560Z,82.70
2018-10-09T02:20:50.256Z,82.90
2018-10-09T02:23:19.032Z,83.00
2018-10-09T02:25:47.674Z,83.10
2018-10-09T02:28:16.346Z,83.00
2018-10-09T02:30:45.025Z,82.80
2018-10-09T02:33:13.683Z,82.90
2018-10-09T02:35:42.357Z,83.00
2018-10-09T02:38:10.993Z,82.80
2018-10-09T02:40:39.628Z,82.70
2018-10-09T02:43:08.263Z,82.50
2018-10-09T02:45:36.917Z,82.50
2018-10-09T02:48:05.584Z,82.60
2018-10-09T02:50:34.229Z,82.50
2018-10-09T02:53:02.867Z,82.70
2018-10-09T02:55:31.545Z,82.70
2018-10-09T02:58:00.201Z,82.70
2018-10-09T03:00:28.893Z,82.80
2018-10-09T03:02:57.541Z,82.60
2018-10-09T03:05:26.179Z,82.60
2018-10-09T03:07:54.913Z,82.50
2018-10-09T03:10:23.565Z,82.50
2018-10-09T03:12:52.212Z,82.40
2018-10-09T03:15:20.893Z,82.20
2018-10-09T03:17:49.539Z,82.50
2018-10-09T03:20:18.201Z,82.30
2018-10-09T03:22:46.851Z,83.10
2018-10-09T03:25:15.497Z,82.50
2018-10-09T03:27:44.277Z,82.50
2018-10-09T03:30:13.305Z,82.80
2018-10-09T03:32:42.039Z,82.60
2018-10-09T03:35:10.833Z,82.80
2018-10-09T03:37:39.519Z,82.80
2018-10-09T03:40:08.171Z,83.00
2018-10-09T03:42:36.803Z,82.70
2018-10-09T03:45:05.491Z,82.70
2018-10-09T03:47:34.164Z,82.70
2018-10-09T03:50:02.847Z,83.00
2018-10-09T03:52:31.500Z,83.10
2018-10-09T03:55:00.155Z,83.10
2018-10-09T03:57:28.801Z,83.20
2018-10-09T03:59:57.436Z,83.10
2018-10-09T04:02:26.092Z,83.10
2018-10-09T04:04:54.820Z,83.50
2018-10-09T04:07:24.067Z,83.30
2018-10-09T04:09:52.742Z,83.60
2018-10-09T04:12:21.400Z,84.60
2018-10-09T04:14:50.070Z,84.20
2018-10-09T04:17:25.520Z,84.20
2018-10-09T04:19:54.172Z,83.90
2018-10-09T04:22:23.564Z,84.30
2018-10-09T04:24:52.268Z,84.30
2018-10-09T04:27:20.901Z,84.50
2018-10-09T04:29:49.578Z,85.10
2018-10-09T04:32:18.216Z,85.80
2018-10-09T04:34:46.880Z,85.40
2018-10-09T04:37:15.530Z,85.30
2018-10-09T04:39:44.190Z,85.30
2018-10-09T04:42:12.842Z,85.60
2018-10-09T04:44:41.552Z,86.00
2018-10-09T04:47:10.200Z,85.70
2018-10-09T04:49:38.867Z,85.50
2018-10-09T04:52:07.516Z,85.70
2018-10-09T04:54:36.225Z,86.20
2018-10-09T04:57:04.886Z,86.10
2018-10-09T04:59:33.713Z,85.90
2018-10-09T05:02:02.401Z,86.60
2018-10-09T05:04:33.123Z,86.70
2018-10-09T05:07:01.787Z,87.40
2018-10-09T05:09:30.449Z,86.70
2018-10-09T05:11:59.133Z,86.60
2018-10-09T05:14:27.787Z,87.00
2018-10-09T05:16:56.433Z,87.20
2018-10-09T05:19:25.289Z,87.90
2018-10-09T05:21:53.904Z,87.70
2018-10-09T05:24:22.587Z,87.50
2018-10-09T05:26:51.317Z,87.40
2018-10-09T05:29:19.994Z,87.60
2018-10-09T05:31:48.686Z,87.90
2018-10-09T05:34:17.475Z,87.80
2018-10-09T05:36:46.200Z,87.80
2018-10-09T05:39:14.849Z,87.90
2018-10-09T05:41:43.702Z,87.70
2018-10-09T05:44:12.374Z,87.90
2018-10-09T05:46:41.120Z,87.90
2018-10-09T05:49:09.760Z,87.90
2018-10-09T05:51:38.414Z,87.90
2018-10-09T05:54:07.211Z,87.90
2018-10-09T05:56:35.876Z,87.90
2018-10-09T05:59:04.544Z,87.90
2018-10-09T06:01:33.207Z,87.90
2018-10-09T06:04:01.856Z,87.90
2018-10-09T06:06:30.592Z,87.90
2018-10-09T06:08:59.265Z,87.90
2018-10-09T06:11:27.925Z,88.00
2018-10-09T06:13:56.593Z,88.00
2018-10-09T06:16:25.281Z,88.20
2018-10-09T06:18:53.944Z,88.70
2018-10-09T06:21:22.611Z,88.60
2018-10-09T06:23:51.314Z,88.70
2018-10-09T06:26:19.970Z,88.90
2018-10-09T06:28:48.677Z,88.70
2018-10-09T06:31:17.382Z,88.10
2018-10-09T06:33:46.088Z,87.80
2018-10-09T06:36:14.763Z,88.10
2018-10-09T06:38:43.435Z,88.20
2018-10-09T06:41:12.241Z,88.30
2018-10-09T06:43:40.915Z,88.20
2018-10-09T06:46:09.621Z,88.20
2018-10-09T06:48:38.297Z,88.20
2018-10-09T06:51:06.963Z,88.70
2018-10-09T06:53:35.690Z,89.40
2018-10-09T06:56:04.275Z,89.50
2018-10-09T06:58:32.964Z,90.00
2018-10-09T07:01:01.650Z,90.30
2018-10-09T07:03:30.340Z,91.20
2018-10-09T07:05:59.035Z,92.10
2018-10-09T07:08:27.710Z,93.30
2018-10-09T07:10:57.120Z,94.40
2018-10-09T07:13:25.788Z,94.80
2018-10-09T07:15:54.464Z,95.40
2018-10-09T07:18:23.206Z,95.70
2018-10-09T07:20:51.908Z,96.10
2018-10-09T07:23:20.768Z,96.60
2018-10-09T07:25:49.994Z,97.30
2018-10-09T07:28:18.710Z,97.10
2018-10-09T07:30:47.388Z,97.10
2018-10-09T07:33:16.069Z,97.30
2018-10-09T07:35:44.754Z,97.50
2018-10-09T07:38:13.406Z,97.10
2018-10-09T07:40:42.097Z,96.40
2018-10-09T07:43:10.769Z,96.30
2018-10-09T07:45:39.466Z,96.30
2018-10-09T07:48:08.183Z,96.60
2018-10-09T07:50:36.840Z,97.30
2018-10-09T07:53:05.561Z,97.50
2018-10-09T07:55:34.241Z,97.90
2018-10-09T07:58:02.937Z,98.10
2018-10-09T08:00:31.717Z,98.50
2018-10-09T08:03:00.409Z,98.70
2018-10-09T08:05:29.129Z,98.70
2018-10-09T08:07:57.860Z,99.10
2018-10-09T08:10:26.719Z,99.20
2018-10-09T08:12:55.361Z,99.20
2018-10-09T08:15:24.053Z,99.20
2018-10-09T08:17:52.731Z,99.50
2018-10-09T08:20:21.530Z,99.30
2018-10-09T08:22:50.229Z,99.70
2018-10-09T08:25:18.925Z,99.60
2018-10-09T08:27:47.640Z,99.70
2018-10-09T08:30:16.324Z,99.90
2018-10-09T08:32:44.988Z,99.90
2018-10-09T08:35:13.668Z,99.90
2018-10-09T08:37:42.340Z,99.90
2018-10-09T08:40:11.065Z,99.90
2018-10-09T08:42:39.703Z,99.90
2018-10-09T08:45:08.526Z,99.90
2018-10-09T08:47:37.258Z,99.90
2018-10-09T08:50:05.932Z,99.90
2018-10-09T08:52:34.612Z,99.90
2018-10-09T08:55:03.295Z,99.90
2018-10-09T08:57:32.207Z,99.90
2018-10-09T09:00:00.858Z,99.90
2018-10-09T09:02:30.648Z,99.90
2018-10-09T09:04:59.326Z,99.90
2018-10-09T09:07:28.025Z,99.90
2018-10-09T09:09:56.726Z,99.90
2018-10-09T09:12:25.425Z,99.90
2018-10-09T09:14:54.201Z,99.90
2018-10-09T09:17:22.849Z,99.90
2018-10-09T09:19:51.530Z,99.90
2018-10-09T09:22:20.225Z,99.70
2018-10-09T09:24:48.985Z,99.70
2018-10-09T09:27:17.879Z,99.90
2018-10-09T09:29:46.437Z,99.80
2018-10-09T09:32:15.317Z,99.90
2018-10-09T09:34:44.052Z,99.40
2018-10-09T09:37:12.753Z,99.80
2018-10-09T09:39:41.413Z,99.80
2018-10-09T09:42:10.139Z,99.50
2018-10-09T09:44:38.871Z,99.70
2018-10-09T09:47:07.548Z,99.50
2018-10-09T09:49:36.259Z,99.50
2018-10-09T09:52:05.013Z,99.40
2018-10-09T09:54:33.673Z,99.10
2018-10-09T09:57:02.352Z,99.20
2018-10-09T09:59:31.033Z,98.20
2018-10-09T10:01:59.717Z,98.50
2018-10-09T10:04:28.376Z,98.30
2018-10-09T10:06:57.103Z,97.80
2018-10-09T10:09:25.823Z,97.80
2018-10-09T10:11:54.449Z,97.70
2018-10-09T10:14:23.118Z,97.60
2018-10-09T10:16:51.817Z,97.70
2018-10-09T10:19:20.509Z,97.70
2018-10-09T10:21:49.180Z,97.30
2018-10-09T10:24:17.841Z,96.90
2018-10-09T10:26:46.556Z,96.90
2018-10-09T10:29:15.399Z,96.80
2018-10-09T10:31:43.979Z,96.20
2018-10-09T10:34:12.650Z,95.60
2018-10-09T10:36:41.339Z,95.10
2018-10-09T10:39:11.128Z,95.10
2018-10-09T10:41:40.026Z,94.20
2018-10-09T10:44:08.770Z,93.90
2018-10-09T10:46:38.330Z,92.60
2018-10-09T10:49:09.040Z,91.90
2018-10-09T10:51:38.052Z,91.70
2018-10-09T10:54:07.041Z,91.60
2018-10-09T10:56:36.178Z,91.70
2018-10-09T10:59:04.957Z,92.00
2018-10-09T11:01:33.735Z,90.90
2018-10-09T11:04:02.346Z,90.50
2018-10-09T11:06:31.050Z,90.80
2018-10-09T11:08:59.704Z,90.20
2018-10-09T11:11:28.564Z,89.30
2018-10-09T11:13:57.526Z,86.30
2018-10-09T11:16:26.361Z,85.00
2018-10-09T11:18:55.190Z,81.70
2018-10-09T11:21:24.318Z,82.50
2018-10-09T11:23:53.038Z,81.10
2018-10-09T11:26:21.891Z,80.40
2018-10-09T11:28:50.781Z,81.30
2018-10-09T11:31:19.646Z,81.70
2018-10-09T11:33:48.405Z,82.40
2018-10-09T11:36:17.212Z,83.00
2018-10-09T11:38:46.258Z,83.40
2018-10-09T11:41:14.984Z,83.10
2018-10-09T11:43:44.543Z,84.10
2018-10-09T11:46:13.211Z,84.00
2018-10-09T11:48:41.917Z,84.50
2018-10-09T11:51:10.611Z,85.10
2018-10-09T11:53:39.327Z,85.90
2018-10-09T11:56:08.057Z,85.30
2018-10-09T11:58:36.830Z,84.50
2018-10-09T12:01:07.305Z,83.60
2018-10-09T12:03:36.369Z,83.50
2018-10-09T12:06:05.255Z,82.50
2018-10-09T12:08:34.000Z,82.30
2018-10-09T12:11:02.968Z,83.10
2018-10-09T12:13:32.331Z,83.20
2018-10-09T12:16:01.088Z,83.40
2018-10-09T12:18:29.880Z,82.30
2018-10-09T12:20:58.575Z,82.20
2018-10-09T12:23:27.369Z,82.40
2018-10-09T12:25:56.047Z,81.40
2018-10-09T12:28:24.752Z,81.50
2018-10-09T12:30:53.577Z,80.90
2018-10-09T12:33:22.311Z,81.10
2018-10-09T12:35:51.027Z,80.90
2018-10-09T12:38:19.842Z,80.20
2018-10-09T12:40:48.983Z,80.80
2018-10-09T12:43:17.932Z,80.30
2018-10-09T12:45:46.816Z,79.60
2018-10-09T12:48:15.762Z,78.80
2018-10-09T12:50:44.742Z,79.10
2018-10-09T12:53:13.644Z,78.30
2018-10-09T12:55:42.534Z,78.70
2018-10-09T12:58:11.416Z,78.80
2018-10-09T13:00:40.333Z,78.80
2018-10-09T13:05:44.394Z,78.90
2018-10-09T13:08:13.247Z,79.90
2018-10-09T13:10:42.150Z,79.00
2018-10-09T13:13:10.902Z,79.70
2018-10-09T13:15:39.604Z,79.90
2018-10-09T13:18:08.324Z,80.10
2018-10-09T13:20:37.108Z,80.40
2018-10-09T13:23:05.775Z,81.10
2018-10-09T13:25:34.482Z,80.20
2018-10-09T13:28:03.208Z,81.40
2018-10-09T13:30:31.998Z,81.10
2018-10-09T13:33:00.720Z,80.70
2018-10-09T13:35:29.434Z,80.30
2018-10-09T13:37:58.162Z,79.30
2018-10-09T13:40:27.120Z,79.30
2018-10-09T13:42:55.782Z,79.30
2018-10-09T13:45:24.493Z,80.00
2018-10-09T13:47:53.177Z,79.20
2018-10-09T13:50:21.874Z,79.90
2018-10-09T13:52:50.629Z,80.70
2018-10-09T13:55:19.458Z,79.70
2018-10-09T13:57:48.127Z,79.30
2018-10-09T14:00:16.915Z,79.30
2018-10-09T14:02:45.569Z,78.90
2018-10-09T14:05:14.264Z,79.30
2018-10-09T14:07:42.917Z,79.30
2018-10-09T14:10:11.742Z,80.10
2018-10-09T14:12:40.315Z,79.40
2018-10-09T14:15:09.082Z,79.50
2018-10-09T14:17:37.701Z,79.90
2018-10-09T14:20:06.611Z,79.50
2018-10-09T14:22:35.595Z,80.10
2018-10-09T14:25:05.305Z,79.50
2018-10-09T14:27:33.993Z,80.00
2018-10-09T14:30:02.695Z,79.60
2018-10-09T14:32:31.444Z,79.90
2018-10-09T14:35:00.281Z,80.40
2018-10-09T14:37:28.881Z,80.70
2018-10-09T14:39:57.644Z,80.50
2018-10-09T14:42:26.335Z,80.30
2018-10-09T14:44:55.052Z,80.80
2018-10-09T14:47:23.747Z,81.00
2018-10-09T14:49:52.482Z,80.80
2018-10-09T14:52:21.171Z,81.50
2018-10-09T14:54:49.924Z,81.10
2018-10-09T14:57:18.672Z,80.90
2018-10-09T14:59:47.360Z,81.30
2018-10-09T15:02:16.120Z,82.10
2018-10-09T15:04:44.842Z,82.70
2018-10-09T15:07:13.507Z,83.40
2018-10-09T15:09:42.258Z,83.30
2018-10-09T15:12:10.936Z,83.70
2018-10-09T15:14:39.609Z,83.90
2018-10-09T15:17:08.343Z,83.70
2018-10-09T15:19:36.989Z,84.00
2018-10-09T15:22:05.697Z,84.00
2018-10-09T15:24:34.382Z,84.30
2018-10-09T15:27:03.039Z,84.60
2018-10-09T15:29:31.737Z,84.50
2018-10-09T15:32:00.384Z,84.50
2018-10-09T15:34:29.086Z,84.50
2018-10-09T15:36:57.805Z,84.50
2018-10-09T15:39:26.548Z,84.70
2018-10-09T15:41:55.175Z,84.50
2018-10-09T15:44:23.893Z,84.90
2018-10-09T15:46:52.579Z,85.20
2018-10-09T15:49:21.249Z,84.90
2018-10-09T15:51:50.030Z,85.20
2018-10-09T15:54:18.619Z,85.40
2018-10-09T15:56:48.185Z,85.90
2018-10-09T15:59:16.923Z,86.10
2018-10-09T16:01:45.651Z,86.30
2018-10-09T16:04:14.456Z,86.30
2018-10-09T16:06:43.062Z,87.10
2018-10-09T16:09:12.038Z,86.70
2018-10-09T16:11:40.724Z,87.00
2018-10-09T16:14:09.407Z,86.90
2018-10-09T16:16:38.097Z,87.60
2018-10-09T16:19:06.988Z,87.90
2018-10-09T16:21:35.685Z,87.70
2018-10-09T16:24:04.372Z,88.00
2018-10-09T16:26:33.090Z,88.70
2018-10-09T16:29:01.769Z,88.30
2018-10-09T16:31:30.461Z,88.10
2018-10-09T16:33:59.140Z,88.30
2018-10-09T16:36:27.879Z,89.50
2018-10-09T16:38:56.529Z,90.10
2018-10-09T16:41:25.196Z,89.80
2018-10-09T16:43:53.900Z,90.00
2018-10-09T16:46:22.545Z,90.30
2018-10-09T16:48:51.221Z,90.90
2018-10-09T16:51:20.003Z,91.30
2018-10-09T16:53:48.676Z,91.30
2018-10-09T16:56:17.371Z,91.40
2018-10-09T16:58:46.070Z,91.50
2018-10-09T17:01:14.779Z,90.80
2018-10-09T17:03:43.474Z,91.10
2018-10-09T17:06:12.162Z,91.20
2018-10-09T17:08:40.899Z,91.30
2018-10-09T17:11:09.590Z,91.20
2018-10-09T17:13:38.289Z,91.20
2018-10-09T17:16:07.303Z,91.40
2018-10-09T17:18:36.110Z,91.20
2018-10-09T17:21:05.033Z,91.40
2018-10-09T17:23:34.263Z,91.50
2018-10-09T17:26:03.282Z,91.50
2018-10-09T17:28:32.313Z,91.70
2018-10-09T17:31:01.068Z,91.50
2018-10-09T17:33:29.972Z,91.40
2018-10-09T17:35:59.003Z,92.00
2018-10-09T17:38:27.862Z,92.00
2018-10-09T17:40:56.747Z,92.10
2018-10-09T17:43:25.679Z,92.00
2018-10-09T17:45:54.619Z,92.20
2018-10-09T17:48:23.488Z,92.50
2018-10-09T17:50:52.273Z,92.10
2018-10-09T17:53:21.195Z,92.50
2018-10-09T17:55:50.035Z,92.10
2018-10-09T17:58:18.866Z,92.10
2018-10-09T18:00:47.745Z,92.40
2018-10-09T18:03:16.694Z,92.50
2018-10-09T18:05:45.490Z,92.50
2018-10-09T18:08:14.542Z,92.60
2018-10-09T18:10:43.539Z,92.60
2018-10-09T18:13:12.451Z,92.60
2018-10-09T18:15:41.338Z,92.50
2018-10-09T18:18:10.084Z,92.90
2018-10-09T18:20:38.902Z,92.70
2018-10-09T18:23:07.844Z,92.70
2018-10-09T18:25:36.700Z,92.90
2018-10-09T18:28:05.980Z,92.90
2018-10-09T18:30:34.983Z,92.80
2018-10-09T18:33:03.869Z,92.80
2018-10-09T18:35:32.618Z,92.80
2018-10-09T18:38:01.513Z,92.80
2018-10-09T18:40:30.338Z,93.00
2018-10-09T18:42:59.141Z,92.90
2018-10-09T18:45:27.950Z,92.90
2018-10-09T18:47:56.746Z,92.80
2018-10-09T18:50:25.546Z,92.90
2018-10-09T18:52:54.421Z,92.90
2018-10-09T18:55:23.285Z,92.80
2018-10-09T18:57:52.143Z,92.80
2018-10-09T19:00:21.059Z,92.70
2018-10-09T19:02:49.840Z,92.80
2018-10-09T19:05:25.403Z,92.70
2018-10-09T19:07:54.125Z,92.70
2018-10-09T19:10:22.820Z,92.70
2018-10-09T19:12:51.516Z,92.70
2018-10-09T19:15:20.212Z,92.60
2018-10-09T19:17:48.917Z,92.60
2018-10-09T19:20:17.583Z,92.50
2018-10-09T19:22:46.266Z,92.40
2018-10-09T19:25:14.937Z,92.50
2018-10-09T19:27:43.689Z,92.40
2018-10-09T19:30:12.390Z,92.40
2018-10-09T19:32:41.195Z,92.60
2018-10-09T19:35:09.730Z,92.60
2018-10-09T19:37:38.419Z,92.50
2018-10-09T19:40:07.103Z,92.50
2018-10-09T19:42:35.789Z,92.50
2018-10-09T19:45:04.629Z,92.50
2018-10-09T19:47:35.655Z,92.50
2018-10-09T19:50:05.064Z,92.40
2018-10-09T19:52:34.128Z,92.40
2018-10-09T19:55:02.802Z,92.50
2018-10-09T19:57:31.488Z,92.20
2018-10-09T20:00:00.185Z,92.30
2018-10-09T20:02:28.889Z,92.30
2018-10-09T20:05:04.363Z,92.40
2018-10-09T20:07:33.080Z,92.40
2018-10-09T20:10:01.758Z,92.30
2018-10-09T20:12:30.430Z,92.40
2018-10-09T20:14:59.122Z,92.30
2018-10-09T20:17:27.779Z,92.40
2018-10-09T20:19:56.526Z,92.50
2018-10-09T20:22:25.232Z,92.30
2018-10-09T20:24:53.943Z,92.30
2018-10-09T20:27:23.024Z,92.40
2018-10-09T20:29:51.740Z,92.30
2018-10-09T20:32:20.446Z,92.20
2018-10-09T20:34:49.278Z,92.20
2018-10-09T20:37:17.946Z,92.10
2018-10-09T20:39:46.632Z,92.40
2018-10-09T20:42:15.296Z,92.40
2018-10-09T20:44:43.981Z,92.40
2018-10-09T20:47:12.644Z,92.40
2018-10-09T20:49:41.305Z,92.30
2018-10-09T20:52:10.010Z,92.40
2018-10-09T20:54:38.709Z,92.50
2018-10-09T20:57:07.413Z,92.30
2018-10-09T20:59:36.090Z,92.20
2018-10-09T21:02:04.791Z,92.30
2018-10-09T21:04:33.478Z,92.40
2018-10-09T21:07:02.181Z,92.30
2018-10-09T21:09:30.873Z,92.30
2018-10-09T21:11:59.577Z,92.50
2018-10-09T21:14:28.285Z,92.50
2018-10-09T21:16:56.941Z,92.40
2018-10-09T21:19:25.827Z,92.40
2018-10-09T21:21:54.777Z,92.40
2018-10-09T21:24:23.488Z,92.30
2018-10-09T21:26:52.159Z,92.40
2018-10-09T21:29:20.852Z,92.40
2018-10-09T21:31:49.523Z,92.60
2018-10-09T21:34:18.192Z,92.60
2018-10-09T21:36:46.873Z,92.30
2018-10-09T21:39:15.650Z,92.60
2018-10-09T21:41:44.312Z,92.60
2018-10-09T21:44:12.979Z,92.50
2018-10-09T21:46:41.685Z,92.60
2018-10-09T21:49:10.440Z,92.80
2018-10-09T21:51:39.076Z,92.80
2018-10-09T21:54:07.768Z,92.80
2018-10-09T21:56:36.431Z,92.60
2018-10-09T21:59:05.100Z,92.60
2018-10-09T22:01:33.758Z,92.50
2018-10-09T22:04:02.450Z,92.40
2018-10-09T22:06:31.103Z,92.40
2018-10-09T22:08:59.786Z,92.10
2018-10-09T22:11:28.455Z,92.50
2018-10-09T22:13:57.164Z,92.80
2018-10-09T22:16:25.843Z,92.70
2018-10-09T22:18:54.564Z,92.70
2018-10-09T22:21:23.257Z,92.50
2018-10-09T22:23:52.010Z,92.60
2018-10-09T22:26:20.670Z,92.50
2018-10-09T22:28:49.347Z,92.50
2018-10-09T22:31:17.993Z,92.50
2018-10-09T22:33:46.667Z,92.40
2018-10-09T22:36:15.325Z,92.30
2018-10-09T22:38:44.096Z,92.50
2018-10-09T22:41:12.785Z,92.50
2018-10-09T22:43:41.444Z,92.40
2018-10-09T22:46:10.131Z,92.40
2018-10-09T22:48:38.819Z,92.70
2018-10-09T22:51:07.778Z,92.60
2018-10-09T22:53:36.456Z,92.50
2018-10-09T22:56:05.142Z,92.50
2018-10-09T22:58:33.810Z,92.30
2018-10-09T23:01:02.510Z,92.40
2018-10-09T23:03:31.189Z,92.70
2018-10-09T23:05:59.900Z,93.00
2018-10-09T23:08:28.582Z,92.70
2018-10-09T23:10:57.263Z,92.70
2018-10-09T23:13:25.939Z,92.70
2018-10-09T23:15:54.631Z,93.00
2018-10-09T23:18:23.313Z,92.80
2018-10-09T23:20:52.016Z,92.70
2018-10-09T23:23:20.670Z,92.40
2018-10-09T23:25:49.356Z,92.60
2018-10-09T23:28:18.006Z,93.10
2018-10-09T23:30:46.704Z,93.10
2018-10-09T23:33:15.364Z,92.90
2018-10-09T23:35:44.050Z,92.70
2018-10-09T23:38:12.739Z,93.00
2018-10-09T23:40:41.471Z,93.20
2018-10-09T23:43:10.185Z,93.60
2018-10-09T23:45:38.974Z,93.30
2018-10-09T23:48:08.530Z,93.40
2018-10-09T23:50:38.903Z,93.70
2018-10-09T23:53:07.563Z,93.10
2018-10-09T23:55:36.791Z,93.30
2018-10-09T23:58:05.815Z,93.20
